sensor_id;sensor_type;location;lat;lon;timestamp;pressure;altitude;pressure_sealevel;temperature;humidity
6514;BME280;3290;47.716;9.070;2022-09-24T00:00:46;96709.63;;;15.88;100.00
6514;BME280;3290;47.716;9.070;2022-09-24T00:03:20;96705.88;;;15.79;100.00
6514;BME280;3290;47.716;9.070;2022-09-24T00:05:46;96710.56;;;15.72;100.00
6514;BME280;3290;47.716;9.070;2022-09-24T00:08:13;96706.53;;;15.65;100.00
6514;BME280;3290;47.716;9.070;2022-09-24T00:10:40;96705.28;;;15.72;100.00
6514;BME280;3290;47.716;9.070;2022-09-24T00:13:07;96700.81;;;15.78;100.00
6514;BME280;3290;47.716;9.070;2022-09-24T00:15:37;96704.34;;;15.88;100.00
6514;BME280;3290;47.716;9.070;2022-09-24T00:18:03;96696.09;;;15.80;100.00
6514;BME280;3290;47.716;9.070;2022-09-24T00:20:30;96691.03;;;15.73;100.00
6514;BME280;3290;47.716;9.070;2022-09-24T00:22:57;96684.44;;;15.76;100.00
6514;BME280;3290;47.716;9.070;2022-09-24T00:25:23;96688.19;;;15.85;100.00
6514;BME280;3290;47.716;9.070;2022-09-24T00:28:07;96683.22;;;15.88;100.00
6514;BME280;3290;47.716;9.070;2022-09-24T00:30:33;96688.34;;;15.68;100.00
6514;BME280;3290;47.716;9.070;2022-09-24T00:32:58;96685.69;;;15.68;100.00
6514;BME280;3290;47.716;9.070;2022-09-24T00:35:24;96687.16;;;15.55;100.00
6514;BME280;3290;47.716;9.070;2022-09-24T00:37:50;96682.66;;;15.55;100.00
6514;BME280;3290;47.716;9.070;2022-09-24T00:40:15;96674.81;;;15.34;100.00
6514;BME280;3290;47.716;9.070;2022-09-24T00:42:40;96678.03;;;15.67;100.00
6514;BME280;3290;47.716;9.070;2022-09-24T00:45:08;96671.06;;;15.87;100.00
6514;BME280;3290;47.716;9.070;2022-09-24T00:47:37;96672.09;;;15.86;100.00
6514;BME280;3290;47.716;9.070;2022-09-24T00:52:55;96660.03;;;15.64;100.00
6514;BME280;3290;47.716;9.070;2022-09-24T00:55:24;96652.88;;;15.60;100.00
6514;BME280;3290;47.716;9.070;2022-09-24T00:57:53;96644.84;;;15.50;100.00
6514;BME280;3290;47.716;9.070;2022-09-24T01:00:20;96640.69;;;15.59;100.00
6514;BME280;3290;47.716;9.070;2022-09-24T01:02:48;96636.50;;;15.58;100.00
6514;BME280;3290;47.716;9.070;2022-09-24T01:05:15;96638.78;;;15.80;100.00
6514;BME280;3290;47.716;9.070;2022-09-24T01:07:40;96644.66;;;15.87;100.00
6514;BME280;3290;47.716;9.070;2022-09-24T01:10:06;96635.72;;;15.98;100.00
6514;BME280;3290;47.716;9.070;2022-09-24T01:12:47;96636.38;;;15.79;100.00
6514;BME280;3290;47.716;9.070;2022-09-24T01:15:25;96632.91;;;15.73;100.00
6514;BME280;3290;47.716;9.070;2022-09-24T01:18:15;96637.28;;;15.58;100.00
6514;BME280;3290;47.716;9.070;2022-09-24T01:26:13;96623.44;;;15.77;100.00
6514;BME280;3290;47.716;9.070;2022-09-24T01:31:47;96626.69;;;15.89;100.00
6514;BME280;3290;47.716;9.070;2022-09-24T01:34:21;96651.41;;;15.78;100.00
6514;BME280;3290;47.716;9.070;2022-09-24T01:36:51;96641.16;;;15.82;100.00
6514;BME280;3290;47.716;9.070;2022-09-24T01:39:19;96642.63;;;16.04;100.00
6514;BME280;3290;47.716;9.070;2022-09-24T01:41:46;96644.28;;;16.10;100.00
6514;BME280;3290;47.716;9.070;2022-09-24T01:44:14;96644.78;;;16.07;100.00
6514;BME280;3290;47.716;9.070;2022-09-24T01:46:40;96647.75;;;16.15;100.00
6514;BME280;3290;47.716;9.070;2022-09-24T01:49:06;96658.09;;;16.22;100.00
6514;BME280;3290;47.716;9.070;2022-09-24T01:51:37;96662.88;;;16.25;100.00
6514;BME280;3290;47.716;9.070;2022-09-24T01:54:16;96675.88;;;15.95;100.00
6514;BME280;3290;47.716;9.070;2022-09-24T01:59:15;96677.28;;;16.07;100.00
6514;BME280;3290;47.716;9.070;2022-09-24T02:04:17;96670.06;;;16.29;100.00
6514;BME280;3290;47.716;9.070;2022-09-24T02:07:03;96663.44;;;16.27;100.00
6514;BME280;3290;47.716;9.070;2022-09-24T02:12:02;96662.88;;;16.25;100.00
6514;BME280;3290;47.716;9.070;2022-09-24T02:14:31;96657.13;;;16.38;100.00
6514;BME280;3290;47.716;9.070;2022-09-24T02:17:02;96652.75;;;16.58;100.00
6514;BME280;3290;47.716;9.070;2022-09-24T02:19:29;96640.63;;;16.67;100.00
6514;BME280;3290;47.716;9.070;2022-09-24T02:21:56;96631.38;;;16.64;100.00
6514;BME280;3290;47.716;9.070;2022-09-24T02:24:52;96627.63;;;16.55;100.00
6514;BME280;3290;47.716;9.070;2022-09-24T02:27:16;96634.00;;;16.64;100.00
6514;BME280;3290;47.716;9.070;2022-09-24T02:29:42;96634.28;;;16.63;100.00
6514;BME280;3290;47.716;9.070;2022-09-24T02:32:12;96634.28;;;16.63;100.00
6514;BME280;3290;47.716;9.070;2022-09-24T02:34:42;96613.53;;;16.40;100.00
6514;BME280;3290;47.716;9.070;2022-09-24T02:37:10;96599.78;;;16.38;100.00
6514;BME280;3290;47.716;9.070;2022-09-24T02:39:36;96600.34;;;16.45;100.00
6514;BME280;3290;47.716;9.070;2022-09-24T02:42:03;96604.22;;;16.28;100.00
6514;BME280;3290;47.716;9.070;2022-09-24T02:44:31;96600.50;;;16.29;100.00
6514;BME280;3290;47.716;9.070;2022-09-24T02:46:58;96596.63;;;16.46;100.00
6514;BME280;3290;47.716;9.070;2022-09-24T02:49:23;96588.88;;;16.25;100.00
6514;BME280;3290;47.716;9.070;2022-09-24T02:51:49;96581.97;;;16.19;100.00
6514;BME280;3290;47.716;9.070;2022-09-24T02:54:14;96569.84;;;16.28;100.00
6514;BME280;3290;47.716;9.070;2022-09-24T02:56:40;96573.06;;;16.40;100.00
6514;BME280;3290;47.716;9.070;2022-09-24T02:59:06;96574.06;;;16.29;100.00
6514;BME280;3290;47.716;9.070;2022-09-24T03:01:32;96573.56;;;16.32;100.00
6514;BME280;3290;47.716;9.070;2022-09-24T03:03:58;96576.28;;;16.01;100.00
6514;BME280;3290;47.716;9.070;2022-09-24T03:06:24;96582.53;;;15.85;100.00
6514;BME280;3290;47.716;9.070;2022-09-24T03:08:50;96587.81;;;15.85;100.00
6514;BME280;3290;47.716;9.070;2022-09-24T03:11:19;96589.13;;;15.82;100.00
6514;BME280;3290;47.716;9.070;2022-09-24T03:13:46;96582.88;;;15.98;100.00
6514;BME280;3290;47.716;9.070;2022-09-24T03:16:11;96591.84;;;15.97;100.00
6514;BME280;3290;47.716;9.070;2022-09-24T03:18:37;96588.66;;;15.95;100.00
6514;BME280;3290;47.716;9.070;2022-09-24T03:21:05;96588.75;;;15.69;100.00
6514;BME280;3290;47.716;9.070;2022-09-24T03:23:33;96592.84;;;15.86;100.00
6514;BME280;3290;47.716;9.070;2022-09-24T03:25:58;96597.16;;;16.02;100.00
6514;BME280;3290;47.716;9.070;2022-09-24T03:28:24;96603.50;;;16.01;100.00
6514;BME280;3290;47.716;9.070;2022-09-24T03:30:49;96597.94;;;15.98;100.00
6514;BME280;3290;47.716;9.070;2022-09-24T03:33:30;96598.28;;;16.11;100.00
6514;BME280;3290;47.716;9.070;2022-09-24T03:35:57;96595.03;;;15.99;100.00
6514;BME280;3290;47.716;9.070;2022-09-24T03:38:23;96599.16;;;15.85;100.00
6514;BME280;3290;47.716;9.070;2022-09-24T03:40:48;96591.81;;;15.87;100.00
6514;BME280;3290;47.716;9.070;2022-09-24T03:43:13;96584.69;;;15.93;100.00
6514;BME280;3290;47.716;9.070;2022-09-24T03:45:39;96580.69;;;15.90;100.00
6514;BME280;3290;47.716;9.070;2022-09-24T03:48:04;96578.44;;;16.08;100.00
6514;BME280;3290;47.716;9.070;2022-09-24T03:50:31;96577.53;;;15.88;100.00
6514;BME280;3290;47.716;9.070;2022-09-24T03:52:56;96568.59;;;15.99;100.00
6514;BME280;3290;47.716;9.070;2022-09-24T03:55:22;96561.16;;;15.91;100.00
6514;BME280;3290;47.716;9.070;2022-09-24T03:57:47;96565.66;;;15.91;100.00
6514;BME280;3290;47.716;9.070;2022-09-24T04:00:13;96562.91;;;15.76;100.00
6514;BME280;3290;47.716;9.070;2022-09-24T04:02:38;96553.47;;;15.85;100.00
6514;BME280;3290;47.716;9.070;2022-09-24T04:05:05;96554.34;;;16.00;100.00
6514;BME280;3290;47.716;9.070;2022-09-24T04:07:31;96550.66;;;16.06;100.00
6514;BME280;3290;47.716;9.070;2022-09-24T04:09:56;96556.00;;;16.16;100.00
6514;BME280;3290;47.716;9.070;2022-09-24T04:12:21;96544.25;;;15.92;100.00
6514;BME280;3290;47.716;9.070;2022-09-24T04:14:47;96549.28;;;15.94;100.00
6514;BME280;3290;47.716;9.070;2022-09-24T04:17:13;96554.25;;;15.85;100.00
6514;BME280;3290;47.716;9.070;2022-09-24T04:19:39;96558.53;;;15.91;100.00
6514;BME280;3290;47.716;9.070;2022-09-24T04:22:04;96559.63;;;16.00;100.00
6514;BME280;3290;47.716;9.070;2022-09-24T04:24:30;96557.25;;;15.99;100.00
6514;BME280;3290;47.716;9.070;2022-09-24T04:26:55;96563.31;;;15.99;100.00
6514;BME280;3290;47.716;9.070;2022-09-24T04:29:20;96559.34;;;15.97;100.00
6514;BME280;3290;47.716;9.070;2022-09-24T04:31:46;96561.19;;;16.01;100.00
6514;BME280;3290;47.716;9.070;2022-09-24T04:34:11;96560.22;;;16.12;100.00
6514;BME280;3290;47.716;9.070;2022-09-24T04:36:37;96568.22;;;16.22;100.00
6514;BME280;3290;47.716;9.070;2022-09-24T04:39:02;96579.69;;;16.01;100.00
6514;BME280;3290;47.716;9.070;2022-09-24T04:41:27;96576.81;;;15.98;100.00
6514;BME280;3290;47.716;9.070;2022-09-24T04:43:53;96574.50;;;16.16;100.00
6514;BME280;3290;47.716;9.070;2022-09-24T04:46:18;96573.94;;;16.09;100.00
6514;BME280;3290;47.716;9.070;2022-09-24T04:48:44;96567.50;;;16.31;100.00
6514;BME280;3290;47.716;9.070;2022-09-24T04:51:09;96573.69;;;16.10;100.00
6514;BME280;3290;47.716;9.070;2022-09-24T04:53:35;96577.16;;;16.16;100.00
6514;BME280;3290;47.716;9.070;2022-09-24T04:56:02;96578.38;;;15.99;100.00
6514;BME280;3290;47.716;9.070;2022-09-24T04:58:28;96586.66;;;16.12;100.00
6514;BME280;3290;47.716;9.070;2022-09-24T05:00:53;96586.13;;;16.10;100.00
6514;BME280;3290;47.716;9.070;2022-09-24T05:03:19;96583.16;;;16.02;100.00
6514;BME280;3290;47.716;9.070;2022-09-24T05:05:47;96583.09;;;15.92;100.00
6514;BME280;3290;47.716;9.070;2022-09-24T05:08:14;96577.75;;;16.23;100.00
6514;BME280;3290;47.716;9.070;2022-09-24T05:10:40;96587.81;;;16.31;100.00
6514;BME280;3290;47.716;9.070;2022-09-24T05:13:05;96590.97;;;16.23;100.00
6514;BME280;3290;47.716;9.070;2022-09-24T05:15:31;96606.06;;;16.32;100.00
6514;BME280;3290;47.716;9.070;2022-09-24T05:17:57;96592.88;;;16.37;100.00
6514;BME280;3290;47.716;9.070;2022-09-24T05:20:23;96591.56;;;16.40;100.00
6514;BME280;3290;47.716;9.070;2022-09-24T05:22:49;96591.47;;;16.20;100.00
6514;BME280;3290;47.716;9.070;2022-09-24T05:25:16;96600.53;;;16.34;100.00
6514;BME280;3290;47.716;9.070;2022-09-24T05:27:46;96600.00;;;16.32;100.00
6514;BME280;3290;47.716;9.070;2022-09-24T05:30:12;96599.25;;;16.36;100.00
6514;BME280;3290;47.716;9.070;2022-09-24T05:32:38;96609.22;;;16.24;100.00
6514;BME280;3290;47.716;9.070;2022-09-24T05:35:04;96615.50;;;16.18;100.00
6514;BME280;3290;47.716;9.070;2022-09-24T05:37:30;96617.84;;;16.10;100.00
6514;BME280;3290;47.716;9.070;2022-09-24T05:39:55;96614.81;;;16.28;100.00
6514;BME280;3290;47.716;9.070;2022-09-24T05:42:21;96616.34;;;16.19;100.00
6514;BME280;3290;47.716;9.070;2022-09-24T05:44:47;96618.97;;;16.19;100.00
6514;BME280;3290;47.716;9.070;2022-09-24T05:47:12;96618.97;;;16.19;100.00
6514;BME280;3290;47.716;9.070;2022-09-24T05:49:38;96624.75;;;16.16;100.00
6514;BME280;3290;47.716;9.070;2022-09-24T05:52:03;96613.19;;;16.27;100.00
6514;BME280;3290;47.716;9.070;2022-09-24T05:54:29;96622.19;;;16.26;100.00
6514;BME280;3290;47.716;9.070;2022-09-24T05:56:54;96625.25;;;16.13;100.00
6514;BME280;3290;47.716;9.070;2022-09-24T05:59:19;96626.91;;;16.19;100.00
6514;BME280;3290;47.716;9.070;2022-09-24T06:01:45;96624.88;;;15.95;100.00
6514;BME280;3290;47.716;9.070;2022-09-24T06:04:10;96633.63;;;16.00;100.00
6514;BME280;3290;47.716;9.070;2022-09-24T06:06:37;96632.00;;;15.94;100.00
6514;BME280;3290;47.716;9.070;2022-09-24T06:09:02;96636.22;;;15.95;100.00
6514;BME280;3290;47.716;9.070;2022-09-24T06:11:30;96631.06;;;16.10;100.00
6514;BME280;3290;47.716;9.070;2022-09-24T06:14:02;96637.34;;;16.04;100.00
6514;BME280;3290;47.716;9.070;2022-09-24T06:16:31;96630.44;;;15.98;100.00
6514;BME280;3290;47.716;9.070;2022-09-24T06:18:56;96638.03;;;15.90;100.00
6514;BME280;3290;47.716;9.070;2022-09-24T06:21:22;96634.38;;;15.91;100.00
6514;BME280;3290;47.716;9.070;2022-09-24T06:23:47;96640.16;;;15.88;100.00
6514;BME280;3290;47.716;9.070;2022-09-24T06:26:13;96647.25;;;15.82;100.00
6514;BME280;3290;47.716;9.070;2022-09-24T06:28:39;96638.84;;;15.90;100.00
6514;BME280;3290;47.716;9.070;2022-09-24T06:31:05;96643.16;;;16.06;100.00
6514;BME280;3290;47.716;9.070;2022-09-24T06:33:31;96640.94;;;15.88;100.00
6514;BME280;3290;47.716;9.070;2022-09-24T06:36:01;96638.94;;;16.05;100.00
6514;BME280;3290;47.716;9.070;2022-09-24T06:38:27;96640.00;;;16.04;100.00
6514;BME280;3290;47.716;9.070;2022-09-24T06:40:57;96648.06;;;15.88;100.00
6514;BME280;3290;47.716;9.070;2022-09-24T06:43:23;96647.63;;;15.64;100.00
6514;BME280;3290;47.716;9.070;2022-09-24T06:45:48;96654.25;;;15.67;100.00
6514;BME280;3290;47.716;9.070;2022-09-24T06:48:14;96646.13;;;15.78;100.00
6514;BME280;3290;47.716;9.070;2022-09-24T06:50:42;96642.66;;;15.73;100.00
6514;BME280;3290;47.716;9.070;2022-09-24T06:53:10;96646.63;;;15.70;100.00
6514;BME280;3290;47.716;9.070;2022-09-24T06:55:36;96647.81;;;15.89;100.00
6514;BME280;3290;47.716;9.070;2022-09-24T07:00:28;96649.59;;;15.79;100.00
6514;BME280;3290;47.716;9.070;2022-09-24T07:02:54;96651.84;;;15.65;100.00
6514;BME280;3290;47.716;9.070;2022-09-24T07:05:19;96644.50;;;16.03;100.00
6514;BME280;3290;47.716;9.070;2022-09-24T07:07:44;96648.78;;;16.14;100.00
6514;BME280;3290;47.716;9.070;2022-09-24T07:10:10;96648.09;;;16.29;100.00
6514;BME280;3290;47.716;9.070;2022-09-24T07:12:36;96649.25;;;16.42;100.00
6514;BME280;3290;47.716;9.070;2022-09-24T07:15:02;96655.03;;;16.40;100.00
6514;BME280;3290;47.716;9.070;2022-09-24T07:17:28;96656.28;;;16.27;100.00
6514;BME280;3290;47.716;9.070;2022-09-24T07:19:53;96653.28;;;16.14;100.00
6514;BME280;3290;47.716;9.070;2022-09-24T07:22:20;96652.97;;;16.05;100.00
6514;BME280;3290;47.716;9.070;2022-09-24T07:24:46;96657.09;;;16.28;100.00
6514;BME280;3290;47.716;9.070;2022-09-24T07:27:12;96662.72;;;16.36;100.00
6514;BME280;3290;47.716;9.070;2022-09-24T07:29:38;96667.56;;;16.18;100.00
6514;BME280;3290;47.716;9.070;2022-09-24T07:32:04;96660.88;;;16.46;100.00
6514;BME280;3290;47.716;9.070;2022-09-24T07:34:30;96669.34;;;16.43;100.00
6514;BME280;3290;47.716;9.070;2022-09-24T07:36:55;96663.97;;;16.29;100.00
6514;BME280;3290;47.716;9.070;2022-09-24T07:39:24;96670.06;;;16.34;100.00
6514;BME280;3290;47.716;9.070;2022-09-24T07:41:51;96663.91;;;16.19;100.00
6514;BME280;3290;47.716;9.070;2022-09-24T07:44:20;96671.94;;;16.02;100.00
6514;BME280;3290;47.716;9.070;2022-09-24T07:46:50;96675.34;;;16.29;100.00
6514;BME280;3290;47.716;9.070;2022-09-24T07:49:15;96664.59;;;16.45;100.00
6514;BME280;3290;47.716;9.070;2022-09-24T07:51:41;96666.31;;;16.25;100.00
6514;BME280;3290;47.716;9.070;2022-09-24T07:54:07;96661.28;;;16.24;100.00
6514;BME280;3290;47.716;9.070;2022-09-24T07:56:32;96673.50;;;15.99;100.00
6514;BME280;3290;47.716;9.070;2022-09-24T07:58:58;96670.31;;;16.28;100.00
6514;BME280;3290;47.716;9.070;2022-09-24T08:01:23;96670.84;;;16.30;100.00
6514;BME280;3290;47.716;9.070;2022-09-24T08:03:50;96668.69;;;16.22;100.00
6514;BME280;3290;47.716;9.070;2022-09-24T08:06:16;96680.38;;;16.31;100.00
6514;BME280;3290;47.716;9.070;2022-09-24T08:08:42;96683.94;;;16.15;100.00
6514;BME280;3290;47.716;9.070;2022-09-24T08:11:10;96678.59;;;16.05;100.00
6514;BME280;3290;47.716;9.070;2022-09-24T08:13:37;96694.69;;;16.03;100.00
6514;BME280;3290;47.716;9.070;2022-09-24T08:16:03;96687.16;;;16.17;100.00
6514;BME280;3290;47.716;9.070;2022-09-24T08:18:30;96690.03;;;16.15;100.00
6514;BME280;3290;47.716;9.070;2022-09-24T08:21:06;96688.84;;;15.97;100.00
6514;BME280;3290;47.716;9.070;2022-09-24T08:23:34;96687.16;;;16.17;100.00
6514;BME280;3290;47.716;9.070;2022-09-24T08:26:00;96702.19;;;16.16;100.00
6514;BME280;3290;47.716;9.070;2022-09-24T08:28:26;96698.56;;;15.91;100.00
6514;BME280;3290;47.716;9.070;2022-09-24T08:30:59;96685.19;;;16.39;100.00
6514;BME280;3290;47.716;9.070;2022-09-24T08:33:28;96691.44;;;16.23;100.00
6514;BME280;3290;47.716;9.070;2022-09-24T08:35:58;96692.00;;;16.30;100.00
6514;BME280;3290;47.716;9.070;2022-09-24T08:38:24;96695.69;;;15.93;100.00
6514;BME280;3290;47.716;9.070;2022-09-24T08:50:15;96696.44;;;16.19;100.00
6514;BME280;3290;47.716;9.070;2022-09-24T08:55:14;96698.50;;;16.58;100.00
6514;BME280;3290;47.716;9.070;2022-09-24T08:58:22;96693.47;;;16.57;100.00
6514;BME280;3290;47.716;9.070;2022-09-24T09:12:26;96693.25;;;16.63;100.00
6514;BME280;3290;47.716;9.070;2022-09-24T09:15:01;96693.34;;;16.78;100.00
6514;BME280;3290;47.716;9.070;2022-09-24T09:20:15;96691.16;;;16.65;100.00
6514;BME280;3290;47.716;9.070;2022-09-24T09:22:45;96693.75;;;16.60;100.00
6514;BME280;3290;47.716;9.070;2022-09-24T09:25:21;96692.03;;;16.81;100.00
6514;BME280;3290;47.716;9.070;2022-09-24T09:28:09;96690.53;;;16.48;100.00
6514;BME280;3290;47.716;9.070;2022-09-24T09:38:40;96688.09;;;16.93;100.00
6514;BME280;3290;47.716;9.070;2022-09-24T09:41:31;96678.78;;;16.81;100.00
6514;BME280;3290;47.716;9.070;2022-09-24T09:44:01;96686.75;;;16.85;100.00
6514;BME280;3290;47.716;9.070;2022-09-24T09:46:38;96681.28;;;17.12;100.00
6514;BME280;3290;47.716;9.070;2022-09-24T09:49:06;96677.38;;;17.24;100.00
6514;BME280;3290;47.716;9.070;2022-09-24T09:51:37;96684.56;;;17.38;100.00
6514;BME280;3290;47.716;9.070;2022-09-24T09:54:03;96687.72;;;17.25;100.00
6514;BME280;3290;47.716;9.070;2022-09-24T09:56:33;96687.72;;;17.25;100.00
6514;BME280;3290;47.716;9.070;2022-09-24T10:01:38;96687.22;;;17.43;100.00
6514;BME280;3290;47.716;9.070;2022-09-24T10:04:26;96684.22;;;17.20;100.00
6514;BME280;3290;47.716;9.070;2022-09-24T10:09:31;96680.75;;;17.15;100.00
6514;BME280;3290;47.716;9.070;2022-09-24T10:12:18;96680.31;;;17.32;100.00
6514;BME280;3290;47.716;9.070;2022-09-24T10:14:57;96680.03;;;17.24;100.00
6514;BME280;3290;47.716;9.070;2022-09-24T10:17:29;96681.91;;;17.53;100.00
6514;BME280;3290;47.716;9.070;2022-09-24T10:19:55;96687.25;;;17.48;100.00
6514;BME280;3290;47.716;9.070;2022-09-24T10:22:23;96678.50;;;17.63;100.00
6514;BME280;3290;47.716;9.070;2022-09-24T10:24:50;96680.09;;;17.54;100.00
6514;BME280;3290;47.716;9.070;2022-09-24T10:27:21;96680.88;;;17.49;100.00
6514;BME280;3290;47.716;9.070;2022-09-24T10:29:52;96693.06;;;17.50;100.00
6514;BME280;3290;47.716;9.070;2022-09-24T10:32:38;96686.97;;;17.45;100.00
6514;BME280;3290;47.716;9.070;2022-09-24T10:35:24;96690.78;;;17.08;100.00
6514;BME280;3290;47.716;9.070;2022-09-24T10:37:56;96681.41;;;17.41;100.00
6514;BME280;3290;47.716;9.070;2022-09-24T10:40:24;96680.81;;;17.20;100.00
6514;BME280;3290;47.716;9.070;2022-09-24T10:43:00;96682.47;;;17.45;100.00
6514;BME280;3290;47.716;9.070;2022-09-24T10:48:14;96671.06;;;16.69;100.00
6514;BME280;3290;47.716;9.070;2022-09-24T10:50:53;96668.53;;;16.94;100.00
6514;BME280;3290;47.716;9.070;2022-09-24T10:53:47;96671.22;;;17.09;100.00
6514;BME280;3290;47.716;9.070;2022-09-24T10:56:32;96673.75;;;16.79;100.00
6514;BME280;3290;47.716;9.070;2022-09-24T11:07:26;96670.28;;;17.54;100.00
6514;BME280;3290;47.716;9.070;2022-09-24T11:18:25;96680.84;;;17.44;100.00
6514;BME280;3290;47.716;9.070;2022-09-24T11:20:56;96675.16;;;17.01;100.00
6514;BME280;3290;47.716;9.070;2022-09-24T11:24:02;96676.50;;;17.09;100.00
6514;BME280;3290;47.716;9.070;2022-09-24T11:26:53;96673.72;;;16.74;100.00
6514;BME280;3290;47.716;9.070;2022-09-24T11:29:25;96674.38;;;17.06;100.00
6514;BME280;3290;47.716;9.070;2022-09-24T11:42:59;96653.84;;;17.72;100.00
6514;BME280;3290;47.716;9.070;2022-09-24T11:46:02;96652.25;;;17.46;100.00
6514;BME280;3290;47.716;9.070;2022-09-24T11:48:36;96652.25;;;17.46;100.00
6514;BME280;3290;47.716;9.070;2022-09-24T11:51:13;96648.81;;;17.65;100.00
6514;BME280;3290;47.716;9.070;2022-09-24T11:56:19;96637.13;;;18.31;100.00
6514;BME280;3290;47.716;9.070;2022-09-24T11:59:09;96637.94;;;18.26;100.00
6514;BME280;3290;47.716;9.070;2022-09-24T12:01:38;96645.09;;;18.01;100.00
6514;BME280;3290;47.716;9.070;2022-09-24T12:09:18;96630.75;;;18.32;100.00
6514;BME280;3290;47.716;9.070;2022-09-24T12:12:33;96628.94;;;17.93;100.00
6514;BME280;3290;47.716;9.070;2022-09-24T12:14:44;96622.06;;;18.11;100.00
6514;BME280;3290;47.716;9.070;2022-09-24T12:17:40;96621.00;;;17.78;100.00
6514;BME280;3290;47.716;9.070;2022-09-24T12:20:25;96620.97;;;18.17;100.00
6514;BME280;3290;47.716;9.070;2022-09-24T12:22:58;96609.78;;;18.30;100.00
6514;BME280;3290;47.716;9.070;2022-09-24T12:25:33;96611.91;;;18.43;100.00
6514;BME280;3290;47.716;9.070;2022-09-24T12:28:03;96602.50;;;18.70;99.51
6514;BME280;3290;47.716;9.070;2022-09-24T12:30:35;96614.44;;;18.73;100.00
6514;BME280;3290;47.716;9.070;2022-09-24T12:33:28;96611.31;;;18.56;99.26
6514;BME280;3290;47.716;9.070;2022-09-24T12:36:02;96614.56;;;18.43;99.40
6514;BME280;3290;47.716;9.070;2022-09-24T12:44:00;96613.56;;;17.95;100.00
6514;BME280;3290;47.716;9.070;2022-09-24T12:46:51;96606.38;;;17.95;100.00
6514;BME280;3290;47.716;9.070;2022-09-24T12:49:27;96602.38;;;18.07;100.00
6514;BME280;3290;47.716;9.070;2022-09-24T12:51:56;96592.34;;;18.04;100.00
6514;BME280;3290;47.716;9.070;2022-09-24T12:54:34;96591.72;;;18.42;100.00
6514;BME280;3290;47.716;9.070;2022-09-24T12:59:29;96593.91;;;18.25;97.57
6514;BME280;3290;47.716;9.070;2022-09-24T13:02:06;96593.69;;;18.12;100.00
6514;BME280;3290;47.716;9.070;2022-09-24T13:04:43;96595.56;;;17.57;100.00
6514;BME280;3290;47.716;9.070;2022-09-24T13:07:28;96591.00;;;18.07;100.00
6514;BME280;3290;47.716;9.070;2022-09-24T13:09:53;96587.50;;;18.41;99.67
6514;BME280;3290;47.716;9.070;2022-09-24T13:12:21;96589.19;;;17.93;100.00
6514;BME280;3290;47.716;9.070;2022-09-24T13:15:00;96582.50;;;18.25;100.00
6514;BME280;3290;47.716;9.070;2022-09-24T13:17:31;96591.00;;;18.07;100.00
6514;BME280;3290;47.716;9.070;2022-09-24T13:20:23;96593.44;;;17.54;100.00
6514;BME280;3290;47.716;9.070;2022-09-24T13:22:58;96590.25;;;17.87;100.00
6514;BME280;3290;47.716;9.070;2022-09-24T13:25:25;96579.38;;;18.13;100.00
6514;BME280;3290;47.716;9.070;2022-09-24T13:28:21;96595.03;;;17.60;100.00
6514;BME280;3290;47.716;9.070;2022-09-24T13:30:52;96586.25;;;17.94;100.00
6514;BME280;3290;47.716;9.070;2022-09-24T13:33:24;96580.94;;;17.99;98.64
6514;BME280;3290;47.716;9.070;2022-09-24T13:36:12;96584.41;;;18.09;98.24
6514;BME280;3290;47.716;9.070;2022-09-24T13:38:55;96583.59;;;18.14;98.99
6514;BME280;3290;47.716;9.070;2022-09-24T13:41:34;96591.81;;;17.88;99.98
6514;BME280;3290;47.716;9.070;2022-09-24T13:46:44;96588.66;;;17.96;97.18
6514;BME280;3290;47.716;9.070;2022-09-24T13:49:14;96590.50;;;17.80;97.67
6514;BME280;3290;47.716;9.070;2022-09-24T13:51:44;96591.81;;;17.83;98.58
6514;BME280;3290;47.716;9.070;2022-09-24T13:54:42;96585.19;;;18.00;97.85
6514;BME280;3290;47.716;9.070;2022-09-24T13:57:24;96593.41;;;17.99;97.69
6514;BME280;3290;47.716;9.070;2022-09-24T14:00:12;96592.38;;;17.60;99.50
6514;BME280;3290;47.716;9.070;2022-09-24T14:02:42;96584.94;;;17.67;99.06
6514;BME280;3290;47.716;9.070;2022-09-24T14:05:16;96591.25;;;18.01;98.30
6514;BME280;3290;47.716;9.070;2022-09-24T14:08:00;96595.00;;;17.90;98.80
6514;BME280;3290;47.716;9.070;2022-09-24T14:10:27;96593.44;;;17.59;98.94
6514;BME280;3290;47.716;9.070;2022-09-24T14:13:18;96593.47;;;17.39;100.00
6514;BME280;3290;47.716;9.070;2022-09-24T14:15:58;96593.97;;;17.66;100.00
6514;BME280;3290;47.716;9.070;2022-09-24T14:18:27;96589.19;;;17.19;100.00
6514;BME280;3290;47.716;9.070;2022-09-24T14:23:34;96579.66;;;17.82;100.00
6514;BME280;3290;47.716;9.070;2022-09-24T14:26:02;96575.91;;;17.88;100.00
6514;BME280;3290;47.716;9.070;2022-09-24T14:28:28;96572.19;;;17.99;100.00
6514;BME280;3290;47.716;9.070;2022-09-24T14:30:57;96566.28;;;18.41;100.00
6514;BME280;3290;47.716;9.070;2022-09-24T14:33:26;96568.53;;;17.75;100.00
6514;BME280;3290;47.716;9.070;2022-09-24T14:35:55;96556.59;;;17.82;100.00
6514;BME280;3290;47.716;9.070;2022-09-24T14:38:31;96556.31;;;17.69;99.13
6514;BME280;3290;47.716;9.070;2022-09-24T14:41:05;96554.72;;;17.83;99.79
6514;BME280;3290;47.716;9.070;2022-09-24T14:43:46;96548.34;;;17.94;100.00
6514;BME280;3290;47.716;9.070;2022-09-24T14:46:17;96547.28;;;17.90;100.00
6514;BME280;3290;47.716;9.070;2022-09-24T14:48:45;96539.63;;;17.78;100.00
6514;BME280;3290;47.716;9.070;2022-09-24T14:51:28;96543.47;;;18.30;98.66
6514;BME280;3290;47.716;9.070;2022-09-24T14:54:22;96538.72;;;18.32;98.41
6514;BME280;3290;47.716;9.070;2022-09-24T14:56:50;96541.66;;;18.26;100.00
6514;BME280;3290;47.716;9.070;2022-09-24T14:59:27;96545.88;;;18.27;100.00
6514;BME280;3290;47.716;9.070;2022-09-24T15:02:08;96546.19;;;18.20;99.05
6514;BME280;3290;47.716;9.070;2022-09-24T15:04:37;96541.88;;;18.39;97.67
6514;BME280;3290;47.716;9.070;2022-09-24T15:07:03;96548.00;;;18.30;98.16
6514;BME280;3290;47.716;9.070;2022-09-24T15:09:29;96546.19;;;18.01;100.00
6514;BME280;3290;47.716;9.070;2022-09-24T15:12:09;96548.34;;;17.94;100.00
6514;BME280;3290;47.716;9.070;2022-09-24T15:14:52;96545.16;;;17.92;100.00
6514;BME280;3290;47.716;9.070;2022-09-24T15:17:21;96546.72;;;18.22;100.00
6514;BME280;3290;47.716;9.070;2022-09-24T15:19:47;96542.91;;;18.43;98.76
6514;BME280;3290;47.716;9.070;2022-09-24T15:22:12;96552.97;;;18.46;100.00